Time;durP1;ratioP1;P1;durP2;ratioP2;P2;SDS_P1;SDS_P2;PMS_P1;PMS_P2;Temp;Humidity;BMP_temperature;BMP_pressure;BME280_temperature;BME280_humidity;BME280_pressure;Samples;Min_cycle;Max_cycle;Signal;HPM_P1;HPM_P2
2021/03/23 00:02:11;;;;;;;9.97;4.37;;;;;;;2.51;57.90;100137.11;125262;1099;104271;-79
2021/03/23 00:04:41;;;;;;;13.17;4.20;;;;;;;2.48;58.07;100139.50;126286;1099;104142;-78
2021/03/23 00:07:13;;;;;;;12.23;4.23;;;;;;;2.49;57.91;100139.59;125391;1100;104143;-78
2021/03/23 00:09:44;;;;;;;16.37;4.40;;;;;;;2.48;57.83;100135.20;126324;1099;104143;-79
2021/03/23 00:12:14;;;;;;;9.57;3.70;;;;;;;2.49;57.92;100136.09;126205;1099;104306;-79
2021/03/23 00:14:43;;;;;;;9.43;3.87;;;;;;;2.49;57.66;100142.19;126276;1099;104510;-78
2021/03/23 00:17:13;;;;;;;7.83;3.73;;;;;;;2.48;57.27;100140.39;126271;1099;104347;-78
2021/03/23 00:19:42;;;;;;;7.50;3.47;;;;;;;2.50;57.38;100143.95;126315;1099;104245;-79
2021/03/23 00:22:12;;;;;;;11.20;3.33;;;;;;;2.50;57.45;100146.55;126227;1099;104178;-79
2021/03/23 00:24:40;;;;;;;9.60;3.23;;;;;;;2.51;57.01;100139.69;126314;1099;104318;-78
2021/03/23 00:27:09;;;;;;;7.07;2.93;;;;;;;2.51;57.16;100140.58;126223;1099;104230;-78
2021/03/23 00:29:38;;;;;;;8.43;3.13;;;;;;;2.50;57.15;100136.19;126278;1099;104155;-78
2021/03/23 00:32:08;;;;;;;9.17;3.33;;;;;;;2.48;57.15;100145.56;126220;1099;104220;-78
2021/03/23 00:34:37;;;;;;;7.50;2.87;;;;;;;2.44;57.06;100138.39;126303;1099;104172;-78
2021/03/23 00:37:07;;;;;;;7.33;2.97;;;;;;;2.46;57.00;100146.26;126296;1099;104137;-79
2021/03/23 00:39:37;;;;;;;8.53;3.10;;;;;;;2.44;56.75;100151.34;126300;1099;104143;-78
2021/03/23 00:42:07;;;;;;;7.77;2.83;;;;;;;2.44;56.92;100146.16;126197;1099;104153;-79
2021/03/23 00:44:36;;;;;;;8.83;3.13;;;;;;;2.43;56.98;100144.40;126303;1099;104155;-79
2021/03/23 00:47:06;;;;;;;5.23;2.40;;;;;;;2.44;56.28;100147.87;126316;1099;104220;-79
2021/03/23 00:49:35;;;;;;;5.87;2.77;;;;;;;2.42;56.99;100145.19;125247;1099;104178;-79
2021/03/23 00:52:05;;;;;;;5.70;2.50;;;;;;;2.42;56.62;100154.66;126238;1099;104162;-79
2021/03/23 00:54:34;;;;;;;5.87;2.53;;;;;;;2.40;56.65;100154.56;126311;1099;104149;-79
2021/03/23 00:57:05;;;;;;;5.43;2.27;;;;;;;2.39;56.51;100144.11;126240;1099;104242;-79
2021/03/23 00:59:34;;;;;;;5.97;2.70;;;;;;;2.37;56.62;100151.78;126288;1099;104248;-78
2021/03/23 01:02:03;;;;;;;6.37;2.37;;;;;;;2.32;56.47;100164.44;126263;1099;104168;-78
2021/03/23 01:04:32;;;;;;;7.47;2.53;;;;;;;2.29;56.25;100150.38;126253;1097;104207;-78
2021/03/23 01:07:01;;;;;;;7.63;2.20;;;;;;;2.25;55.86;100161.36;126218;1099;104156;-79
2021/03/23 01:09:30;;;;;;;7.00;2.13;;;;;;;2.21;56.04;100157.66;125258;1099;104298;-79
2021/03/23 01:11:59;;;;;;;7.00;2.07;;;;;;;2.19;56.27;100154.09;126247;1099;104140;-80
2021/03/23 01:14:28;;;;;;;6.93;2.40;;;;;;;2.16;55.58;100170.31;126290;1099;104161;-79
2021/03/23 01:16:58;;;;;;;4.30;2.20;;;;;;;2.14;55.87;100158.98;126246;1099;104227;-79
2021/03/23 01:19:27;;;;;;;8.27;2.30;;;;;;;2.13;55.67;100157.17;126252;1098;104224;-78
2021/03/23 01:21:56;;;;;;;4.13;2.03;;;;;;;2.11;55.73;100163.95;126259;1099;104172;-79
2021/03/23 01:24:27;;;;;;;5.40;2.27;;;;;;;2.08;55.45;100176.70;126301;1099;104126;-77
2021/03/23 01:26:56;;;;;;;6.23;2.10;;;;;;;2.04;55.80;100166.97;126293;1099;104275;-78
2021/03/23 01:29:25;;;;;;;5.80;2.30;;;;;;;1.99;55.30;100168.34;126271;1099;104217;-78
2021/03/23 01:31:54;;;;;;;5.43;2.30;;;;;;;1.94;55.79;100174.92;126262;1099;104201;-78
2021/03/23 01:34:23;;;;;;;5.63;2.30;;;;;;;1.91;56.08;100185.95;126208;1099;104150;-79
2021/03/23 01:36:52;;;;;;;2.87;1.53;;;;;;;1.86;55.49;100176.13;126311;1099;104205;-78
2021/03/23 01:39:20;;;;;;;6.80;1.90;;;;;;;1.79;55.48;100174.81;126255;1099;104137;-78
2021/03/23 01:41:50;;;;;;;5.80;2.10;;;;;;;1.72;55.05;100170.05;126279;1099;104152;-78
2021/03/23 01:44:19;;;;;;;6.10;2.30;;;;;;;1.68;55.21;100173.22;125250;1099;104136;-78
2021/03/23 01:46:50;;;;;;;5.00;1.90;;;;;;;1.64;55.27;100182.48;126291;1099;104239;-78
2021/03/23 01:49:22;;;;;;;6.03;2.17;;;;;;;1.60;55.09;100185.64;126296;1099;104640;-78
2021/03/23 01:51:54;;;;;;;4.70;1.70;;;;;;;1.56;55.30;100179.37;126294;1099;104277;-79
2021/03/23 01:54:28;;;;;;;4.80;1.90;;;;;;;1.51;55.40;100179.86;126113;1099;104137;-79
2021/03/23 01:57:00;;;;;;;4.83;2.25;;;;;;;1.45;55.41;100175.20;126307;1099;104216;-78
2021/03/23 01:59:33;;;;;;;5.23;2.20;;;;;;;1.39;55.13;100175.67;126320;1099;105657;-78
2021/03/23 02:02:04;;;;;;;6.03;2.73;;;;;;;1.34;55.04;100189.98;126332;1098;104140;-77
2021/03/23 02:04:34;;;;;;;2.33;1.70;;;;;;;1.28;54.56;100186.98;126216;1099;104139;-78
2021/03/23 02:07:04;;;;;;;6.17;2.30;;;;;;;1.23;54.78;100191.84;126256;1099;104165;-78
2021/03/23 02:09:36;;;;;;;4.17;2.10;;;;;;;1.20;55.15;100186.47;126301;1099;102858;-78
2021/03/23 02:12:09;;;;;;;8.90;2.50;;;;;;;1.17;55.08;100190.51;126301;1099;104143;-78
2021/03/23 02:14:42;;;;;;;7.30;2.17;;;;;;;1.15;55.52;100198.16;126251;1099;104152;-79
2021/03/23 02:17:22;;;;;;;11.03;2.37;;;;;;;1.11;55.19;100200.42;126340;1099;104284;-78
2021/03/23 02:19:55;;;;;;;8.07;2.30;;;;;;;1.06;55.46;100198.45;126245;1099;104213;-79
2021/03/23 02:22:27;;;;;;;6.53;2.30;;;;;;;1.04;55.27;100201.70;126285;1099;104169;-78
2021/03/23 02:24:56;;;;;;;30.60;4.13;;;;;;;1.03;55.39;100207.69;126242;1099;104165;-78
2021/03/23 02:27:27;;;;;;;7.17;2.50;;;;;;;1.00;55.03;100205.77;126221;1098;104149;-78
2021/03/23 02:29:59;;;;;;;4.63;2.23;;;;;;;0.99;55.30;100208.25;126280;1098;104278;-78
2021/03/23 02:32:28;;;;;;;5.00;2.33;;;;;;;0.98;54.93;100211.61;126260;1098;104277;-79
2021/03/23 02:34:57;;;;;;;10.40;2.17;;;;;;;0.97;54.61;100207.27;126240;1099;106457;-79
2021/03/23 02:37:25;;;;;;;7.53;2.33;;;;;;;0.96;54.96;100219.26;125335;1099;104140;-78
2021/03/23 02:39:54;;;;;;;4.60;2.30;;;;;;;0.93;54.48;100218.16;125366;1099;104569;-77
2021/03/23 02:42:23;;;;;;;6.70;1.73;;;;;;;0.94;54.58;100227.72;126317;1098;104281;-78
2021/03/23 02:44:52;;;;;;;3.87;2.00;;;;;;;0.97;54.77;100225.34;126183;1099;104235;-78
2021/03/23 02:47:21;;;;;;;6.03;2.20;;;;;;;0.97;54.78;100233.98;126270;1099;104153;-78
2021/03/23 02:49:50;;;;;;;4.25;2.35;;;;;;;0.96;54.75;100231.30;126282;1099;104152;-78
2021/03/23 02:52:20;;;;;;;6.13;2.00;;;;;;;0.92;54.77;100235.36;126267;1099;104153;-79
2021/03/23 02:54:48;;;;;;;8.50;2.47;;;;;;;0.90;54.92;100236.92;126227;1099;104140;-79
2021/03/23 02:57:18;;;;;;;5.70;2.10;;;;;;;0.89;54.72;100250.64;126278;1099;104156;-78
2021/03/23 02:59:47;;;;;;;4.97;2.00;;;;;;;0.84;54.54;100249.41;126309;1099;104139;-78
2021/03/23 03:02:16;;;;;;;6.73;1.93;;;;;;;0.78;54.46;100249.89;126299;1099;104743;-78
2021/03/23 03:04:45;;;;;;;6.50;2.33;;;;;;;0.76;54.62;100253.14;126204;1099;104233;-78
2021/03/23 03:07:14;;;;;;;4.77;2.27;;;;;;;0.72;54.25;100259.78;126300;1099;104576;-79
2021/03/23 03:09:43;;;;;;;6.97;2.10;;;;;;;0.64;54.67;100263.48;126281;1099;104248;-79
2021/03/23 03:12:13;;;;;;;4.40;2.13;;;;;;;0.57;54.63;100266.44;126281;1099;104149;-78
2021/03/23 03:14:42;;;;;;;5.37;2.33;;;;;;;0.51;54.54;100262.64;126169;1099;104204;-79
2021/03/23 03:17:11;;;;;;;6.30;2.23;;;;;;;0.48;54.67;100269.24;126320;1099;104248;-79
2021/03/23 03:19:40;;;;;;;6.73;2.13;;;;;;;0.42;54.70;100256.81;125345;1099;104248;-79
2021/03/23 03:22:08;;;;;;;6.37;2.20;;;;;;;0.38;54.22;100267.69;126195;1099;104150;-79
2021/03/23 03:24:37;;;;;;;3.40;1.67;;;;;;;0.33;54.61;100264.77;126145;1099;104160;-79
2021/03/23 03:27:08;;;;;;;4.60;1.85;;;;;;;0.25;54.76;100268.49;126257;1099;104142;-78
2021/03/23 03:29:39;;;;;;;6.77;2.40;;;;;;;0.21;54.06;100268.16;126342;1099;104152;-78
2021/03/23 03:32:10;;;;;;;4.90;2.33;;;;;;;0.17;54.90;100273.09;126277;1099;104140;-78
2021/03/23 03:34:39;;;;;;;4.73;2.10;;;;;;;0.15;53.88;100272.06;126202;1099;104566;-78
2021/03/23 03:37:08;;;;;;;5.57;2.40;;;;;;;0.10;54.57;100272.53;126274;1099;104275;-78
2021/03/23 03:39:37;;;;;;;7.03;2.23;;;;;;;0.04;54.01;100279.81;126276;1099;104156;-78
2021/03/23 03:42:09;;;;;;;6.60;2.17;;;;;;;-0.01;54.25;100280.36;126299;1099;104146;-79
2021/03/23 03:44:38;;;;;;;8.07;2.20;;;;;;;-0.03;54.17;100278.47;126226;1099;104143;-79
2021/03/23 03:47:07;;;;;;;6.93;2.23;;;;;;;-0.07;54.73;100277.33;125315;1099;107000;-78
2021/03/23 03:49:36;;;;;;;4.33;2.07;;;;;;;-0.09;54.58;100275.44;126230;1099;104220;-78
2021/03/23 03:52:06;;;;;;;7.57;2.40;;;;;;;-0.11;54.66;100275.33;126284;1099;104149;-78
2021/03/23 03:54:35;;;;;;;5.97;2.03;;;;;;;-0.12;54.94;100276.09;126274;1099;104628;-78
2021/03/23 03:57:05;;;;;;;4.90;2.23;;;;;;;-0.16;54.51;100274.06;126254;1099;104155;-79
2021/03/23 03:59:33;;;;;;;4.57;2.03;;;;;;;-0.20;54.30;100277.22;126156;1099;104143;-79
2021/03/23 04:02:02;;;;;;;8.67;2.67;;;;;;;-0.26;54.58;100281.91;126188;1099;104181;-79
2021/03/23 04:04:31;;;;;;;9.93;2.27;;;;;;;-0.29;54.01;100279.98;126310;1099;104156;-79
2021/03/23 04:07:00;;;;;;;7.13;2.30;;;;;;;-0.31;55.00;100276.41;126196;1099;104201;-79
2021/03/23 04:09:28;;;;;;;5.50;2.07;;;;;;;-0.33;53.97;100285.69;126240;1099;104207;-79
2021/03/23 04:11:57;;;;;;;7.07;2.13;;;;;;;-0.34;55.20;100281.33;126251;1099;104320;-79
2021/03/23 04:14:26;;;;;;;5.00;2.20;;;;;;;-0.36;54.82;100288.03;126264;1099;104141;-79
2021/03/23 04:16:55;;;;;;;7.70;3.10;;;;;;;-0.37;55.29;100281.98;126283;1099;104165;-78
2021/03/23 04:19:30;;;;;;;6.53;2.70;;;;;;;-0.37;54.06;100281.98;126286;1099;104614;-78
2021/03/23 04:22:00;;;;;;;9.50;2.20;;;;;;;-0.38;54.52;100282.77;126273;1099;104147;-80
2021/03/23 04:24:30;;;;;;;15.17;2.83;;;;;;;-0.39;54.73;100283.56;125335;1099;104162;-78
2021/03/23 04:26:59;;;;;;;10.83;2.80;;;;;;;-0.40;54.14;100286.02;126168;1099;104239;-78
2021/03/23 04:29:28;;;;;;;6.70;2.50;;;;;;;-0.40;55.27;100284.33;126248;1099;104322;-78
2021/03/23 04:31:57;;;;;;;7.75;2.60;;;;;;;-0.41;54.80;100274.80;126284;1099;104153;-78
2021/03/23 04:34:27;;;;;;;6.23;2.47;;;;;;;-0.40;55.24;100279.18;126291;1099;104159;-79
2021/03/23 04:36:56;;;;;;;9.93;2.93;;;;;;;-0.40;55.12;100283.45;125242;1099;104191;-79
2021/03/23 04:39:25;;;;;;;6.60;2.50;;;;;;;-0.41;54.77;100282.53;126237;1099;104194;-79
2021/03/23 04:41:54;;;;;;;11.37;3.30;;;;;;;-0.41;55.26;100282.53;126211;1099;104152;-79
2021/03/23 04:44:23;;;;;;;7.97;2.73;;;;;;;-0.38;54.78;100279.30;126222;1099;104204;-79
2021/03/23 04:46:51;;;;;;;7.80;2.80;;;;;;;-0.36;54.43;100282.88;126188;1099;103472;-78
2021/03/23 04:49:20;;;;;;;8.73;3.03;;;;;;;-0.37;54.59;100287.14;126179;1099;104191;-78
2021/03/23 04:51:49;;;;;;;5.67;2.63;;;;;;;-0.35;54.97;100291.53;125272;1099;104149;-78
2021/03/23 04:54:18;;;;;;;9.90;2.90;;;;;;;-0.33;54.53;100282.22;126126;1099;104211;-78
2021/03/23 04:56:47;;;;;;;10.37;2.53;;;;;;;-0.30;55.56;100282.45;126141;1099;104156;-80
2021/03/23 04:59:16;;;;;;;6.33;2.67;;;;;;;-0.26;54.91;100281.91;126225;1099;104140;-79
2021/03/23 05:01:45;;;;;;;13.50;3.30;;;;;;;-0.19;55.60;100284.15;125332;1098;104194;-79
2021/03/23 05:04:17;;;;;;;10.57;3.10;;;;;;;-0.16;55.03;100294.69;126264;1099;104166;-78
2021/03/23 05:06:47;;;;;;;7.07;2.27;;;;;;;-0.14;54.80;100290.57;126142;1099;104290;-78
2021/03/23 05:09:16;;;;;;;11.93;3.10;;;;;;;-0.11;55.14;100293.38;126201;1099;104230;-78
2021/03/23 05:11:45;;;;;;;10.00;2.80;;;;;;;-0.08;54.93;100292.69;126210;1099;104430;-78
2021/03/23 05:14:16;;;;;;;11.30;2.83;;;;;;;-0.05;55.15;100299.00;126148;1099;104310;-78
2021/03/23 05:16:45;;;;;;;8.67;3.30;;;;;;;-0.02;54.46;100294.06;126170;1099;104204;-78
2021/03/23 05:19:14;;;;;;;9.10;2.43;;;;;;;0.04;54.88;100296.18;126257;1099;104153;-77
2021/03/23 05:21:43;;;;;;;8.83;3.10;;;;;;;0.09;54.62;100291.36;126166;1099;104162;-78
2021/03/23 05:24:12;;;;;;;7.37;2.47;;;;;;;0.16;54.95;100297.09;126178;1099;104162;-78
2021/03/23 05:26:41;;;;;;;11.50;2.60;;;;;;;0.24;55.29;100299.35;126019;1097;104197;-78
2021/03/23 05:29:10;;;;;;;15.10;3.43;;;;;;;0.29;55.17;100296.30;126149;1099;104181;-78
2021/03/23 05:31:39;;;;;;;9.13;3.20;;;;;;;0.39;55.23;100296.97;126132;1099;104140;-78
2021/03/23 05:34:13;;;;;;;18.00;3.13;;;;;;;0.48;54.62;100288.23;126155;1099;104172;-77
2021/03/23 05:36:44;;;;;;;12.20;3.03;;;;;;;0.55;55.27;100289.56;126050;1099;104175;-78
2021/03/23 05:39:13;;;;;;;12.75;2.75;;;;;;;0.62;54.65;100296.95;125218;1099;109157;-78
2021/03/23 05:41:58;;;;;;;12.23;3.47;;;;;;;0.68;54.72;100292.22;126063;1099;104143;-77
2021/03/23 05:44:47;;;;;;;9.80;3.07;;;;;;;0.75;55.17;100292.66;126232;1099;104170;-77
2021/03/23 05:47:20;;;;;;;11.30;3.33;;;;;;;0.84;54.72;100278.73;126231;1099;104140;-77
2021/03/23 05:49:56;;;;;;;11.43;3.12;;;;;;;0.95;54.78;100274.33;126190;1099;104285;-78
2021/03/23 05:52:32;;;;;;;10.07;2.70;;;;;;;1.02;54.92;100278.23;126187;1099;104150;-77
2021/03/23 05:55:15;;;;;;;9.07;3.30;;;;;;;1.10;54.64;100282.23;126241;1099;105219;-78
2021/03/23 05:57:52;;;;;;;15.97;3.23;;;;;;;1.20;55.14;100284.69;126087;1099;104573;-77
2021/03/23 06:00:25;;;;;;;15.00;3.57;;;;;;;1.29;54.72;100280.94;126023;1099;104224;-76
2021/03/23 06:03:04;;;;;;;12.47;3.80;;;;;;;1.39;54.48;100279.09;125295;1099;104293;-75
2021/03/23 06:05:46;;;;;;;12.30;3.33;;;;;;;1.51;54.69;100280.71;126008;1099;104175;-76
2021/03/23 06:08:26;;;;;;;10.43;3.53;;;;;;;1.57;54.77;100282.05;125879;1099;104201;-76
2021/03/23 06:11:20;;;;;;;11.25;3.40;;;;;;;1.68;54.72;100285.33;125162;1099;104204;-76
2021/03/23 06:13:54;;;;;;;9.70;3.90;;;;;;;1.83;54.90;100284.59;125193;1099;104172;-76
2021/03/23 06:16:34;;;;;;;9.47;3.20;;;;;;;1.97;54.75;100278.64;125855;1099;104795;-77
2021/03/23 06:19:15;;;;;;;8.63;3.00;;;;;;;2.07;54.56;100278.47;125818;1099;104194;-77
2021/03/23 06:21:50;;;;;;;9.97;3.37;;;;;;;2.19;54.54;100285.23;125866;1099;104245;-77
2021/03/23 06:24:30;;;;;;;10.17;3.50;;;;;;;2.31;54.03;100293.80;125824;1099;104270;-76
2021/03/23 06:27:11;;;;;;;11.13;3.43;;;;;;;2.42;54.58;100290.21;125919;1099;104246;-77
2021/03/23 06:30:15;;;;;;;13.83;3.33;;;;;;;2.54;54.51;100289.20;125943;1099;104258;-77
2021/03/23 06:32:48;;;;;;;10.17;3.20;;;;;;;2.62;54.27;100294.09;125186;1099;104587;-77
2021/03/23 06:35:22;;;;;;;15.03;3.30;;;;;;;2.70;54.47;100286.81;125190;1101;104152;-76
2021/03/23 06:37:51;;;;;;;9.90;3.33;;;;;;;2.79;53.96;100279.62;126054;1099;104146;-77
2021/03/23 06:40:24;;;;;;;11.87;3.37;;;;;;;2.88;54.63;100287.05;126009;1099;104224;-77
2021/03/23 06:42:56;;;;;;;6.08;3.00;;;;;;;3.00;54.59;100292.13;125898;1098;104297;-77
2021/03/23 06:45:32;;;;;;;10.47;3.23;;;;;;;3.14;54.05;100286.09;125137;1099;104290;-76
2021/03/23 06:48:21;;;;;;;9.73;3.23;;;;;;;3.26;52.91;100296.34;125311;1099;104223;-76
2021/03/23 06:50:51;;;;;;;9.70;2.70;;;;;;;3.39;52.99;100287.60;125228;1100;110282;-77
2021/03/23 06:53:22;;;;;;;8.97;2.97;;;;;;;3.50;53.41;100281.36;125969;1099;104152;-77
2021/03/23 06:55:51;;;;;;;9.87;3.00;;;;;;;3.63;52.12;100284.69;125806;1099;104162;-77
2021/03/23 06:58:27;;;;;;;10.07;2.90;;;;;;;3.74;52.63;100286.22;125124;1099;104239;-79
2021/03/23 07:01:21;;;;;;;11.17;3.57;;;;;;;3.90;52.26;100285.45;125074;1099;104165;-78
2021/03/23 07:03:56;;;;;;;7.70;2.73;;;;;;;4.03;53.06;100284.45;125820;1099;104179;-79
2021/03/23 07:06:31;;;;;;;8.20;2.83;;;;;;;4.20;52.84;100288.92;125230;1099;104255;-79
2021/03/23 07:09:19;;;;;;;10.87;3.33;;;;;;;4.29;52.69;100276.46;125895;1099;104146;-78
2021/03/23 07:11:57;;;;;;;9.03;3.33;;;;;;;4.41;51.89;100278.88;125898;1099;104201;-78
2021/03/23 07:14:31;;;;;;;8.37;3.30;;;;;;;4.56;51.97;100278.83;125100;1102;104281;-78
2021/03/23 07:17:12;;;;;;;14.00;3.97;;;;;;;4.70;52.34;100281.31;125052;1102;104172;-78
2021/03/23 07:19:46;;;;;;;10.17;3.33;;;;;;;4.74;52.52;100273.77;124984;1102;104303;-78
2021/03/23 07:22:21;;;;;;;13.17;3.40;;;;;;;4.81;52.16;100280.20;125201;1102;104143;-80
2021/03/23 07:24:55;;;;;;;8.20;2.87;;;;;;;4.96;51.82;100274.95;125106;1100;104297;-78
2021/03/23 07:27:28;;;;;;;5.17;2.50;;;;;;;5.12;50.67;100276.67;125110;1102;104529;-79
2021/03/23 07:30:22;;;;;;;8.50;2.80;;;;;;;5.31;51.14;100271.63;125081;1102;104165;-79
2021/03/23 07:32:54;;;;;;;9.90;3.00;;;;;;;5.43;50.98;100276.59;125119;1102;104297;-79
2021/03/23 07:35:29;;;;;;;7.73;2.80;;;;;;;5.36;51.12;100277.07;125066;1102;104386;-78
2021/03/23 07:38:04;;;;;;;8.63;2.93;;;;;;;5.32;50.75;100273.42;125016;1100;104418;-80
2021/03/23 07:40:39;;;;;;;9.73;2.87;;;;;;;5.19;50.17;100271.00;125083;1102;104313;-81
2021/03/23 07:43:26;;;;;;;11.27;3.37;;;;;;;5.18;50.18;100266.60;125201;1102;104146;-78
2021/03/23 07:46:04;;;;;;;8.93;2.80;;;;;;;5.24;49.38;100264.33;125252;1103;104742;-78
2021/03/23 07:48:46;;;;;;;7.50;2.60;;;;;;;5.16;50.29;100263.03;125868;1099;104300;-77
2021/03/23 07:51:27;;;;;;;6.73;2.73;;;;;;;5.24;50.02;100255.64;125798;1099;105604;-80
2021/03/23 07:54:05;;;;;;;9.77;3.33;;;;;;;5.37;50.19;100261.55;125248;1099;104156;-79
2021/03/23 07:56:50;;;;;;;5.37;2.70;;;;;;;5.50;49.22;100260.50;125180;1099;104223;-78
2021/03/23 07:59:24;;;;;;;;;;;;;;;5.61;48.62;100250.64;125958;1099;104159;-79
2021/03/23 08:02:05;;;;;;;7.10;2.52;;;;;;;5.67;48.98;100253.56;126283;1099;104210;-79
2021/03/23 08:04:59;;;;;;;8.77;2.70;;;;;;;5.65;49.36;100247.36;125855;1099;104345;-79
2021/03/23 08:07:34;;;;;;;6.57;2.47;;;;;;;5.66;48.50;100241.35;125984;1099;104875;-79
2021/03/23 08:10:21;;;;;;;7.40;2.57;;;;;;;5.68;48.51;100244.92;126040;1099;104198;-78
2021/03/23 08:13:14;;;;;;;8.43;2.70;;;;;;;5.73;48.39;100232.14;125925;1099;105828;-77
2021/03/23 08:16:10;;;;;;;7.93;2.63;;;;;;;5.85;48.51;100224.95;125037;1102;104398;-78
2021/03/23 08:19:04;;;;;;;10.77;2.83;;;;;;;5.93;48.39;100223.61;124993;1102;104424;-79
2021/03/23 08:22:04;;;;;;;9.00;3.08;;;;;;;5.97;47.86;100231.61;125056;1102;104162;-78
2021/03/23 08:24:53;;;;;;;9.10;2.97;;;;;;;5.89;48.06;100218.17;125066;1102;104422;-79
2021/03/23 08:27:43;;;;;;;8.00;2.77;;;;;;;5.93;48.46;100213.19;125167;1102;104325;-78
2021/03/23 08:30:26;;;;;;;8.43;2.60;;;;;;;6.01;48.18;100211.00;125145;1102;104278;-78
2021/03/23 08:33:01;;;;;;;12.07;2.37;;;;;;;6.09;47.91;100214.91;124932;1102;104249;-79
2021/03/23 08:35:41;;;;;;;8.67;2.60;;;;;;;6.04;47.73;100208.55;125090;1102;104159;-79
2021/03/23 08:38:23;;;;;;;4.70;2.47;;;;;;;6.00;46.99;100208.32;125099;1102;104178;-78
2021/03/23 08:41:04;;;;;;;5.33;2.50;;;;;;;6.02;46.42;100214.52;125056;1102;104261;-78
2021/03/23 08:43:38;;;;;;;7.17;2.63;;;;;;;6.00;46.90;100201.42;125093;1102;118160;-79
2021/03/23 08:46:15;;;;;;;9.27;2.30;;;;;;;6.17;46.26;100199.64;125090;1103;104347;-78
2021/03/23 08:48:49;;;;;;;10.90;2.90;;;;;;;6.29;46.43;100196.72;126135;1099;104194;-78
2021/03/23 08:51:23;;;;;;;8.00;2.60;;;;;;;6.42;45.97;100196.49;125177;1099;104319;-77
2021/03/23 08:53:58;;;;;;;6.30;2.80;;;;;;;6.46;46.49;100198.41;125956;1099;107063;-78
2021/03/23 08:56:54;;;;;;;6.20;2.80;;;;;;;6.58;45.97;100200.70;125962;1099;104174;-78
2021/03/23 08:59:49;;;;;;;7.90;2.60;;;;;;;6.53;45.81;100197.00;125956;1099;104184;-78
2021/03/23 09:02:41;;;;;;;7.53;2.83;;;;;;;6.52;45.60;100174.35;125906;1099;102753;-78
2021/03/23 09:05:37;;;;;;;6.23;2.77;;;;;;;6.52;45.81;100165.65;125479;1099;104268;-77
2021/03/23 09:08:29;;;;;;;7.03;2.40;;;;;;;6.61;45.63;100158.25;126019;1099;104751;-78
2021/03/23 09:11:02;;;;;;;7.17;2.60;;;;;;;6.67;45.22;100145.50;125664;1099;104444;-79
2021/03/23 09:14:02;;;;;;;8.08;2.95;;;;;;;6.73;45.28;100143.17;125590;1099;104178;-76
2021/03/23 09:17:14;;;;;;;8.03;2.50;;;;;;;6.96;45.31;100151.12;125201;1099;104204;-78
2021/03/23 09:19:55;;;;;;;8.20;2.60;;;;;;;7.10;44.70;100143.91;125200;1099;104182;-77
2021/03/23 09:22:40;;;;;;;7.67;2.90;;;;;;;6.91;44.81;100137.88;125276;1099;104232;-79
2021/03/23 09:25:34;;;;;;;4.87;2.77;;;;;;;6.98;44.96;100128.59;125367;1099;104287;-78
2021/03/23 09:28:05;;;;;;;7.10;2.70;;;;;;;7.08;44.77;100127.30;125271;1099;104323;-77
2021/03/23 09:31:06;;;;;;;3.77;2.17;;;;;;;7.25;44.92;100128.04;126188;1099;104638;-78
2021/03/23 09:33:41;;;;;;;6.70;2.30;;;;;;;7.36;44.06;100129.38;125249;1099;104198;-77
2021/03/23 09:36:36;;;;;;;5.73;2.20;;;;;;;7.41;44.58;100113.91;126137;1099;104204;-77
2021/03/23 09:39:29;;;;;;;7.43;2.20;;;;;;;7.48;44.46;100108.10;125363;1099;104906;-77
2021/03/23 09:42:25;;;;;;;7.90;2.40;;;;;;;7.56;43.35;100107.61;125947;1099;104139;-77
2021/03/23 09:45:20;;;;;;;7.13;2.30;;;;;;;7.61;43.93;100112.14;125387;1099;104185;-77
2021/03/23 09:48:27;;;;;;;7.73;2.30;;;;;;;7.55;43.72;100102.32;125225;1099;104855;-77
2021/03/23 09:51:14;;;;;;;6.27;2.40;;;;;;;7.54;43.15;100096.22;125133;1102;104268;-78
2021/03/23 09:53:44;;;;;;;5.50;2.20;;;;;;;7.54;43.51;100088.38;125083;1102;104364;-78
2021/03/23 09:56:26;;;;;;;8.23;2.43;;;;;;;7.52;43.34;100095.24;125122;1103;104290;-77
2021/03/23 09:59:01;;;;;;;6.47;2.20;;;;;;;7.69;43.38;100071.55;125159;1102;104333;-78
2021/03/23 10:01:31;;;;;;;6.57;2.43;;;;;;;7.86;42.85;100078.33;125060;1102;104326;-79
2021/03/23 10:04:03;;;;;;;7.43;2.20;;;;;;;7.90;42.70;100061.96;125129;1102;105292;-78
2021/03/23 10:06:46;;;;;;;7.60;2.70;;;;;;;8.09;42.57;100076.62;125157;1102;104159;-79
2021/03/23 10:09:27;;;;;;;7.93;2.47;;;;;;;8.13;42.77;100069.78;125182;1102;104332;-79
2021/03/23 10:11:58;;;;;;;5.43;2.20;;;;;;;8.37;43.22;100058.51;125116;1100;104149;-79
2021/03/23 10:14:40;;;;;;;8.83;2.50;;;;;;;8.44;42.84;100056.18;125112;1102;104328;-78
2021/03/23 10:17:22;;;;;;;8.10;2.60;;;;;;;8.53;42.69;100055.64;125120;1102;104652;-76
2021/03/23 10:20:10;;;;;;;8.95;2.60;;;;;;;8.51;42.94;100059.02;125050;1102;104252;-76
2021/03/23 10:22:41;;;;;;;6.30;2.60;;;;;;;8.62;42.87;100049.88;125043;1103;104319;-77
2021/03/23 10:25:24;;;;;;;4.97;2.13;;;;;;;8.65;41.75;100055.21;125246;1099;104674;-78
2021/03/23 10:28:03;;;;;;;2.70;1.90;;;;;;;8.59;41.93;100041.91;126043;1099;105186;-79
2021/03/23 10:30:36;;;;;;;6.05;2.30;;;;;;;8.52;42.30;100034.67;125960;1099;104296;-77
2021/03/23 10:33:22;;;;;;;5.80;2.60;;;;;;;8.46;42.01;100027.47;125157;1099;104281;-79
2021/03/23 10:35:58;;;;;;;7.43;2.33;;;;;;;8.33;41.04;100035.69;125007;1102;104335;-78
2021/03/23 10:38:39;;;;;;;7.10;2.80;;;;;;;8.09;40.48;100031.33;125076;1102;104335;-77
2021/03/23 10:41:27;;;;;;;9.43;2.63;;;;;;;7.90;41.25;100035.84;125057;1102;104326;-78
2021/03/23 10:44:14;;;;;;;11.43;2.97;;;;;;;7.70;40.01;100084.67;125042;1102;104328;-78
2021/03/23 10:46:45;;;;;;;15.93;3.70;;;;;;;7.59;41.07;100027.60;124934;1102;104239;-78
2021/03/23 10:49:26;;;;;;;9.03;2.60;;;;;;;7.64;40.30;100046.98;124929;1102;104313;-78
2021/03/23 10:51:57;;;;;;;6.47;2.13;;;;;;;7.70;41.29;100031.56;124976;1102;104337;-78
2021/03/23 10:54:30;;;;;;;6.67;3.20;;;;;;;7.72;40.97;100029.89;125029;1102;104316;-77
2021/03/23 10:57:22;;;;;;;10.37;2.60;;;;;;;7.76;40.69;100026.58;125073;1102;104280;-79
2021/03/23 10:59:54;;;;;;;8.13;2.50;;;;;;;7.82;40.56;100025.91;124919;1102;104238;-78
2021/03/23 11:02:33;;;;;;;8.83;2.47;;;;;;;7.86;40.97;100017.38;124930;1102;104277;-79
2021/03/23 11:05:10;;;;;;;14.17;3.30;;;;;;;7.87;40.56;100006.98;124914;1102;104163;-77
2021/03/23 11:07:56;;;;;;;21.93;4.70;;;;;;;7.77;40.62;100020.50;125596;1099;104184;-77
2021/03/23 11:10:32;;;;;;;14.90;4.33;;;;;;;7.54;40.62;100015.28;125868;1099;104395;-77
2021/03/23 11:13:04;;;;;;;15.37;4.70;;;;;;;7.43;41.39;100021.77;125810;1099;104171;-77
2021/03/23 11:15:40;;;;;;;10.63;4.23;;;;;;;7.46;41.39;100018.39;125739;1099;104219;-78
2021/03/23 11:18:17;;;;;;;10.03;4.13;;;;;;;7.41;41.58;100022.55;125697;1099;104169;-78
2021/03/23 11:20:51;;;;;;;15.03;4.80;;;;;;;7.38;41.44;100013.74;125669;1099;104174;-78
2021/03/23 11:23:43;;;;;;;13.70;4.57;;;;;;;7.47;41.99;100009.75;125070;1099;104179;-77
2021/03/23 11:26:15;;;;;;;11.37;4.70;;;;;;;7.60;41.35;100008.51;125041;1102;104303;-78
2021/03/23 11:28:46;;;;;;;11.33;4.50;;;;;;;7.65;41.18;100007.88;125606;1099;104248;-79
2021/03/23 11:31:16;;;;;;;10.73;4.33;;;;;;;7.72;41.68;100008.99;125047;1099;104342;-78
2021/03/23 11:33:46;;;;;;;6.83;3.70;;;;;;;7.76;41.80;100008.30;125764;1099;104363;-80
2021/03/23 11:36:19;;;;;;;16.73;3.90;;;;;;;7.68;41.80;100022.75;125835;1099;104175;-77
2021/03/23 11:39:03;;;;;;;11.73;3.50;;;;;;;7.49;41.49;100015.91;125812;1098;104210;-77
2021/03/23 11:41:40;;;;;;;11.67;3.47;;;;;;;7.36;41.25;100022.36;125735;1099;104191;-76
2021/03/23 11:44:30;;;;;;;6.80;3.07;;;;;;;7.33;41.66;100007.45;125887;1099;104242;-77
2021/03/23 11:47:10;;;;;;;10.63;3.00;;;;;;;7.36;41.62;100028.46;125103;1099;104181;-77
2021/03/23 11:49:57;;;;;;;8.03;3.40;;;;;;;7.27;41.72;100030.69;125867;1099;104184;-78
2021/03/23 11:52:31;;;;;;;14.20;4.13;;;;;;;7.06;42.02;100035.01;125156;1099;104300;-77